LSZL Airport Information

Runway Information
Runway 08C Length 2297 ft width 98 ft
Elevation 0 ft Threshold 0 ft Heading 0
Runway 26C Length 2297 ft Width 98 ft
Elevation 0 ft Threshold 0 ft Heading 0
Runway 08L Length 2625 ft width 75 ft
Elevation 650 ft Threshold 0 ft Heading 0
Runway 26R Length 2625 ft Width 75 ft
Elevation 650 ft Threshold 0 ft Heading 0
Airport Frequencies
Airport Navaids
Airport Weather Information & NOTAM
ADDS - METARS form results

(0623 UTC 24 May 2018)
 
METAR text: LSZL 240609Z AUTO VRB01KT 9999NDV FEW087 17/14 Q1018 RMK
Conditions at: LSZL (LOCARNO , CH) observed 0609 UTC 24 May 2018
Temperature: 17.0°C (63°F)
Dewpoint: 14.0°C (57°F) [RH = 82%]
Pressure (altimeter): 30.06 inches Hg (1018.0 mb)
Winds: variable direction winds at 1 MPH (1 knots; 0.5 m/s)
Visibility: missing
Ceiling: at least 12,000 feet AGL
Clouds: few clouds at 8700 feet AGL
Weather: no significant weather observed at this time